Granite Falls, NC

6:15 PM EDT on March 22, 2017 (GMT -0400)
Granite Falls- Downtown | | Change Station
Active Advisory: Freeze Warning

Elev 1198 ft 35.80 °N, 81.43 °W | Updated 8 seconds ago

Clear
Clear
63.0 °F
Feels Like 63.0 °F
N
4.0
Wind Variable Wind from NE

Today
High -- | Low -- °F
--% Chance of Precip.
Yesterday
High -- | Low -- °F
Precip. -- in
Pressure 30.14 in
Visibility 10.0 miles
Clouds Clear
Dew Point 16 °F
Humidity 15%
Rainfall 0.01 in
Snow Depth Not available.
7:26 AM 7:39 PM
Waning Crescent, 29% visible
METAR KHKY 222153Z 00000KT 10SM CLR 17/M06 A3018 RMK AO2 SLP205 T01721056
Pressure 30.14 in
Visibility 10.0 miles
Clouds Clear
Dew Point 16 °F
Humidity 15%
Rainfall 0.01 in
Snow Depth Not available.
7:26 AM 7:39 PM
Waning Crescent, 29% visible
METAR KHKY 222153Z 00000KT 10SM CLR 17/M06 A3018 RMK AO2 SLP205 T01721056

Get Your Daily Forecast Email!

Thanks for signing up!

Be on the lookout for a verification email in your inbox.

You'll start receiving severe weather alerts in your inbox..

×

10-Day Weather Forecast

Almanac

Astronomy

Mar. 22, 2017 Rise Set
Actual Time
Civil Twilight
Nautical Twilight
Astronomical Twilight
Moon
Length of Visible Light
Length of Day
Tomorrow will be .
, % of the Moon is Illuminated

Today's Extremes

State Highs State Lows

Community

WunderPhotos

Upload Photos

1,962,540 photos uploaded!

WunderBlog® & News

Nearby

Air Quality

  Air Quality AQ Index Pollutant
Not available.

Snow Depth

Station Depth Elevation

Earthquake Activity

City Distance Mag. Time & Date
Minimum magnitude displayed is 2.5.

Earthquake Activity

City Distance Mag. Time & Date
Minimum magnitude displayed is 2.5.

Coastal Water Temperatures

Place Temperature

Stations

Nearby Weather Stations

Station Location Temp. Windchill Dew Point Humidity Wind Precip. Elev Updated Type
                   

Watches & Warnings

Freeze Warning
Issued: 2:41 PM EDT Mar. 22, 2017 – National Weather Service

... Freeze warning remains in effect from midnight tonight to 9 am
EDT Thursday...

* locations... the northern foothills and northwest Piedmont of
North Carolina.

* Temperatures... lows 30 to 32.

* Impacts... some crops and flowering plants may be damaged or
killed by freezing temperatures, if left unprotected from the
cold.

Precautionary/preparedness actions...

A freeze warning means sub-freezing temperatures are imminent or
highly likely. These conditions will kill crops and other
sensitive vegetation.


Wimberley